sensor_id;sensor_type;location;lat;lon;timestamp;temperature;humidity
27803;DHT22;15182;48.174;11.562;2023-08-20T00:02:23;30.70;70.20
27803;DHT22;15182;48.174;11.562;2023-08-20T00:04:51;30.70;70.30
27803;DHT22;15182;48.174;11.562;2023-08-20T00:07:20;30.60;70.20
27803;DHT22;15182;48.174;11.562;2023-08-20T00:09:48;30.50;70.10
27803;DHT22;15182;48.174;11.562;2023-08-20T00:12:17;30.50;70.20
27803;DHT22;15182;48.174;11.562;2023-08-20T00:14:52;30.50;70.40
27803;DHT22;15182;48.174;11.562;2023-08-20T00:17:23;30.40;70.40
27803;DHT22;15182;48.174;11.562;2023-08-20T00:19:54;30.40;70.30
27803;DHT22;15182;48.174;11.562;2023-08-20T00:22:23;30.40;71.40
27803;DHT22;15182;48.174;11.562;2023-08-20T00:24:55;30.30;71.40
27803;DHT22;15182;48.174;11.562;2023-08-20T00:27:24;30.30;70.80
27803;DHT22;15182;48.174;11.562;2023-08-20T00:29:52;30.30;71.10
27803;DHT22;15182;48.174;11.562;2023-08-20T00:32:20;30.20;70.90
27803;DHT22;15182;48.174;11.562;2023-08-20T00:34:48;30.20;70.90
27803;DHT22;15182;48.174;11.562;2023-08-20T00:37:16;30.10;71.00
27803;DHT22;15182;48.174;11.562;2023-08-20T00:39:44;30.10;71.30
27803;DHT22;15182;48.174;11.562;2023-08-20T00:42:12;30.10;71.40
27803;DHT22;15182;48.174;11.562;2023-08-20T00:44:42;30.00;71.30
27803;DHT22;15182;48.174;11.562;2023-08-20T00:47:12;30.00;71.60
27803;DHT22;15182;48.174;11.562;2023-08-20T00:49:41;30.00;72.60
27803;DHT22;15182;48.174;11.562;2023-08-20T00:52:11;30.00;71.70
27803;DHT22;15182;48.174;11.562;2023-08-20T00:54:40;30.00;71.90
27803;DHT22;15182;48.174;11.562;2023-08-20T00:57:08;29.90;72.80
27803;DHT22;15182;48.174;11.562;2023-08-20T00:59:36;29.90;71.80
27803;DHT22;15182;48.174;11.562;2023-08-20T01:02:05;29.90;72.00
27803;DHT22;15182;48.174;11.562;2023-08-20T01:04:34;29.90;72.30
27803;DHT22;15182;48.174;11.562;2023-08-20T01:07:08;29.80;72.20
27803;DHT22;15182;48.174;11.562;2023-08-20T01:09:48;29.80;72.50
27803;DHT22;15182;48.174;11.562;2023-08-20T01:12:19;29.70;72.70
27803;DHT22;15182;48.174;11.562;2023-08-20T01:14:47;29.70;72.60
27803;DHT22;15182;48.174;11.562;2023-08-20T01:17:16;29.70;72.50
27803;DHT22;15182;48.174;11.562;2023-08-20T01:19:44;29.70;72.60
27803;DHT22;15182;48.174;11.562;2023-08-20T01:22:27;29.70;72.60
27803;DHT22;15182;48.174;11.562;2023-08-20T01:25:11;29.70;72.70
27803;DHT22;15182;48.174;11.562;2023-08-20T01:27:56;29.70;72.60
27803;DHT22;15182;48.174;11.562;2023-08-20T01:30:29;29.60;72.80
27803;DHT22;15182;48.174;11.562;2023-08-20T01:32:58;29.60;72.80
27803;DHT22;15182;48.174;11.562;2023-08-20T01:35:26;29.60;72.80
27803;DHT22;15182;48.174;11.562;2023-08-20T01:38:02;29.50;72.80
27803;DHT22;15182;48.174;11.562;2023-08-20T01:40:30;29.50;72.90
27803;DHT22;15182;48.174;11.562;2023-08-20T01:42:59;29.50;72.90
27803;DHT22;15182;48.174;11.562;2023-08-20T01:45:28;29.50;72.70
27803;DHT22;15182;48.174;11.562;2023-08-20T01:47:56;29.40;72.60
27803;DHT22;15182;48.174;11.562;2023-08-20T01:50:24;29.40;72.60
27803;DHT22;15182;48.174;11.562;2023-08-20T01:52:52;29.40;72.80
27803;DHT22;15182;48.174;11.562;2023-08-20T01:55:20;29.40;72.90
27803;DHT22;15182;48.174;11.562;2023-08-20T01:57:47;29.40;72.80
27803;DHT22;15182;48.174;11.562;2023-08-20T02:00:15;29.40;72.80
27803;DHT22;15182;48.174;11.562;2023-08-20T02:02:44;29.30;72.80
27803;DHT22;15182;48.174;11.562;2023-08-20T02:05:12;29.30;73.00
27803;DHT22;15182;48.174;11.562;2023-08-20T02:07:40;29.30;73.10
27803;DHT22;15182;48.174;11.562;2023-08-20T02:10:08;29.30;73.10
27803;DHT22;15182;48.174;11.562;2023-08-20T02:12:38;29.20;73.30
27803;DHT22;15182;48.174;11.562;2023-08-20T02:15:07;29.20;73.30
27803;DHT22;15182;48.174;11.562;2023-08-20T02:17:37;29.10;73.40
27803;DHT22;15182;48.174;11.562;2023-08-20T02:20:07;29.10;74.40
27803;DHT22;15182;48.174;11.562;2023-08-20T02:22:36;29.10;73.70
27803;DHT22;15182;48.174;11.562;2023-08-20T02:25:04;29.10;73.70
27803;DHT22;15182;48.174;11.562;2023-08-20T02:27:32;29.00;73.80
27803;DHT22;15182;48.174;11.562;2023-08-20T02:30:00;29.00;74.00
27803;DHT22;15182;48.174;11.562;2023-08-20T02:32:28;28.90;73.90
27803;DHT22;15182;48.174;11.562;2023-08-20T02:34:58;29.00;74.10
27803;DHT22;15182;48.174;11.562;2023-08-20T02:37:27;28.90;74.10
27803;DHT22;15182;48.174;11.562;2023-08-20T02:39:56;28.80;74.30
27803;DHT22;15182;48.174;11.562;2023-08-20T02:42:24;28.80;74.20
27803;DHT22;15182;48.174;11.562;2023-08-20T02:44:52;28.80;74.30
27803;DHT22;15182;48.174;11.562;2023-08-20T02:47:19;28.80;74.30
27803;DHT22;15182;48.174;11.562;2023-08-20T02:49:47;28.80;74.20
27803;DHT22;15182;48.174;11.562;2023-08-20T02:52:15;28.70;74.30
27803;DHT22;15182;48.174;11.562;2023-08-20T02:54:44;28.70;74.40
27803;DHT22;15182;48.174;11.562;2023-08-20T02:57:12;28.70;74.70
27803;DHT22;15182;48.174;11.562;2023-08-20T02:59:40;28.70;74.60
27803;DHT22;15182;48.174;11.562;2023-08-20T03:02:07;28.60;74.70
27803;DHT22;15182;48.174;11.562;2023-08-20T03:04:35;28.60;74.90
27803;DHT22;15182;48.174;11.562;2023-08-20T03:07:03;28.60;74.90
27803;DHT22;15182;48.174;11.562;2023-08-20T03:09:31;28.60;75.10
27803;DHT22;15182;48.174;11.562;2023-08-20T03:12:00;28.50;75.10
27803;DHT22;15182;48.174;11.562;2023-08-20T03:14:28;28.50;75.30
27803;DHT22;15182;48.174;11.562;2023-08-20T03:16:56;28.50;75.40
27803;DHT22;15182;48.174;11.562;2023-08-20T03:19:23;28.50;75.30
27803;DHT22;15182;48.174;11.562;2023-08-20T03:21:51;28.40;75.30
27803;DHT22;15182;48.174;11.562;2023-08-20T03:24:19;28.40;75.30
27803;DHT22;15182;48.174;11.562;2023-08-20T03:26:47;28.40;75.10
27803;DHT22;15182;48.174;11.562;2023-08-20T03:29:16;28.40;75.10
27803;DHT22;15182;48.174;11.562;2023-08-20T03:31:44;28.40;75.40
27803;DHT22;15182;48.174;11.562;2023-08-20T03:34:12;28.30;75.30
27803;DHT22;15182;48.174;11.562;2023-08-20T03:36:40;28.30;76.30
27803;DHT22;15182;48.174;11.562;2023-08-20T03:39:07;28.30;75.50
27803;DHT22;15182;48.174;11.562;2023-08-20T03:41:36;28.30;76.60
27803;DHT22;15182;48.174;11.562;2023-08-20T03:44:04;28.30;75.90
27803;DHT22;15182;48.174;11.562;2023-08-20T03:46:33;28.30;76.00
27803;DHT22;15182;48.174;11.562;2023-08-20T03:49:01;28.20;76.00
27803;DHT22;15182;48.174;11.562;2023-08-20T03:51:29;28.20;76.20
27803;DHT22;15182;48.174;11.562;2023-08-20T03:53:57;28.20;77.10
27803;DHT22;15182;48.174;11.562;2023-08-20T03:56:25;28.20;76.40
27803;DHT22;15182;48.174;11.562;2023-08-20T03:58:52;28.10;76.40
27803;DHT22;15182;48.174;11.562;2023-08-20T04:01:20;28.10;76.50
27803;DHT22;15182;48.174;11.562;2023-08-20T04:03:50;28.10;76.60
27803;DHT22;15182;48.174;11.562;2023-08-20T04:06:17;28.10;76.80
27803;DHT22;15182;48.174;11.562;2023-08-20T04:08:45;28.00;76.80
27803;DHT22;15182;48.174;11.562;2023-08-20T04:11:13;28.00;76.80
27803;DHT22;15182;48.174;11.562;2023-08-20T04:13:41;28.00;76.90
27803;DHT22;15182;48.174;11.562;2023-08-20T04:16:10;28.00;77.00
27803;DHT22;15182;48.174;11.562;2023-08-20T04:18:38;28.00;77.00
27803;DHT22;15182;48.174;11.562;2023-08-20T04:21:07;27.90;76.90
27803;DHT22;15182;48.174;11.562;2023-08-20T04:23:35;28.00;77.00
27803;DHT22;15182;48.174;11.562;2023-08-20T04:26:03;28.00;77.00
27803;DHT22;15182;48.174;11.562;2023-08-20T04:28:32;28.00;76.90
27803;DHT22;15182;48.174;11.562;2023-08-20T04:31:00;27.90;77.60
27803;DHT22;15182;48.174;11.562;2023-08-20T04:33:41;27.90;76.70
27803;DHT22;15182;48.174;11.562;2023-08-20T04:36:11;27.90;76.70
27803;DHT22;15182;48.174;11.562;2023-08-20T04:38:39;27.90;77.50
27803;DHT22;15182;48.174;11.562;2023-08-20T04:41:06;27.90;76.60
27803;DHT22;15182;48.174;11.562;2023-08-20T04:43:35;27.90;76.60
27803;DHT22;15182;48.174;11.562;2023-08-20T04:46:03;27.90;76.70
27803;DHT22;15182;48.174;11.562;2023-08-20T04:48:31;27.90;76.70
27803;DHT22;15182;48.174;11.562;2023-08-20T04:51:02;27.90;76.80
27803;DHT22;15182;48.174;11.562;2023-08-20T04:53:32;27.90;76.80
27803;DHT22;15182;48.174;11.562;2023-08-20T04:56:00;27.90;76.90
27803;DHT22;15182;48.174;11.562;2023-08-20T04:58:27;27.90;76.80
27803;DHT22;15182;48.174;11.562;2023-08-20T05:00:55;27.90;76.90
27803;DHT22;15182;48.174;11.562;2023-08-20T05:03:23;27.90;76.90
27803;DHT22;15182;48.174;11.562;2023-08-20T05:05:51;27.90;76.90
27803;DHT22;15182;48.174;11.562;2023-08-20T05:08:19;27.80;77.00
27803;DHT22;15182;48.174;11.562;2023-08-20T05:10:49;27.80;77.10
27803;DHT22;15182;48.174;11.562;2023-08-20T05:13:17;27.80;77.40
27803;DHT22;15182;48.174;11.562;2023-08-20T05:15:48;27.80;78.30
27803;DHT22;15182;48.174;11.562;2023-08-20T05:18:16;27.80;77.70
27803;DHT22;15182;48.174;11.562;2023-08-20T05:20:43;27.70;77.50
27803;DHT22;15182;48.174;11.562;2023-08-20T05:23:11;27.80;77.80
27803;DHT22;15182;48.174;11.562;2023-08-20T05:25:39;27.70;77.70
27803;DHT22;15182;48.174;11.562;2023-08-20T05:28:09;27.70;77.80
27803;DHT22;15182;48.174;11.562;2023-08-20T05:30:37;27.70;78.00
27803;DHT22;15182;48.174;11.562;2023-08-20T05:33:04;27.70;78.10
27803;DHT22;15182;48.174;11.562;2023-08-20T05:35:36;27.70;78.20
27803;DHT22;15182;48.174;11.562;2023-08-20T05:38:04;27.70;78.20
27803;DHT22;15182;48.174;11.562;2023-08-20T05:40:32;27.70;78.40
27803;DHT22;15182;48.174;11.562;2023-08-20T05:43:00;27.80;78.20
27803;DHT22;15182;48.174;11.562;2023-08-20T05:45:29;27.80;79.10
27803;DHT22;15182;48.174;11.562;2023-08-20T05:47:57;27.80;78.30
27803;DHT22;15182;48.174;11.562;2023-08-20T05:50:24;27.80;78.10
27803;DHT22;15182;48.174;11.562;2023-08-20T05:52:52;27.90;78.10
27803;DHT22;15182;48.174;11.562;2023-08-20T05:55:21;27.90;78.00
27803;DHT22;15182;48.174;11.562;2023-08-20T05:57:49;27.90;78.10
27803;DHT22;15182;48.174;11.562;2023-08-20T06:00:17;28.00;77.70
27803;DHT22;15182;48.174;11.562;2023-08-20T06:02:48;28.00;77.20
27803;DHT22;15182;48.174;11.562;2023-08-20T06:05:17;28.00;77.70
27803;DHT22;15182;48.174;11.562;2023-08-20T06:07:44;28.00;76.60
27803;DHT22;15182;48.174;11.562;2023-08-20T06:10:12;28.10;76.60
27803;DHT22;15182;48.174;11.562;2023-08-20T06:12:40;28.20;76.60
27803;DHT22;15182;48.174;11.562;2023-08-20T06:15:08;28.20;76.50
27803;DHT22;15182;48.174;11.562;2023-08-20T06:17:36;28.30;76.20
27803;DHT22;15182;48.174;11.562;2023-08-20T06:20:06;28.30;75.90
27803;DHT22;15182;48.174;11.562;2023-08-20T06:22:35;28.30;75.60
27803;DHT22;15182;48.174;11.562;2023-08-20T06:25:03;28.40;75.80
27803;DHT22;15182;48.174;11.562;2023-08-20T06:27:32;28.40;74.90
27803;DHT22;15182;48.174;11.562;2023-08-20T06:30:00;28.40;74.90
27803;DHT22;15182;48.174;11.562;2023-08-20T06:32:28;28.50;74.60
27803;DHT22;15182;48.174;11.562;2023-08-20T06:34:55;28.50;74.40
27803;DHT22;15182;48.174;11.562;2023-08-20T06:37:25;28.50;74.20
27803;DHT22;15182;48.174;11.562;2023-08-20T06:39:52;28.60;74.40
27803;DHT22;15182;48.174;11.562;2023-08-20T06:42:20;28.60;74.20
27803;DHT22;15182;48.174;11.562;2023-08-20T06:44:48;28.70;74.20
27803;DHT22;15182;48.174;11.562;2023-08-20T06:47:18;28.70;74.10
27803;DHT22;15182;48.174;11.562;2023-08-20T06:49:46;28.70;74.00
27803;DHT22;15182;48.174;11.562;2023-08-20T06:52:14;28.70;73.90
27803;DHT22;15182;48.174;11.562;2023-08-20T06:54:44;28.80;73.80
27803;DHT22;15182;48.174;11.562;2023-08-20T06:57:12;28.80;73.80
27803;DHT22;15182;48.174;11.562;2023-08-20T06:59:40;28.90;74.00
27803;DHT22;15182;48.174;11.562;2023-08-20T07:02:09;29.00;73.60
27803;DHT22;15182;48.174;11.562;2023-08-20T07:04:37;29.00;73.70
27803;DHT22;15182;48.174;11.562;2023-08-20T07:07:05;29.10;73.80
27803;DHT22;15182;48.174;11.562;2023-08-20T07:09:33;29.10;73.40
27803;DHT22;15182;48.174;11.562;2023-08-20T07:12:02;29.20;73.10
27803;DHT22;15182;48.174;11.562;2023-08-20T07:14:30;29.30;72.60
27803;DHT22;15182;48.174;11.562;2023-08-20T07:16:59;29.40;72.80
27803;DHT22;15182;48.174;11.562;2023-08-20T07:19:29;29.50;72.30
27803;DHT22;15182;48.174;11.562;2023-08-20T07:21:56;29.60;72.30
27803;DHT22;15182;48.174;11.562;2023-08-20T07:24:24;29.60;72.50
27803;DHT22;15182;48.174;11.562;2023-08-20T07:26:52;29.80;73.00
27803;DHT22;15182;48.174;11.562;2023-08-20T07:29:26;29.80;73.00
27803;DHT22;15182;48.174;11.562;2023-08-20T07:31:56;29.90;72.00
27803;DHT22;15182;48.174;11.562;2023-08-20T07:34:23;30.00;72.20
27803;DHT22;15182;48.174;11.562;2023-08-20T07:36:51;30.20;71.80
27803;DHT22;15182;48.174;11.562;2023-08-20T07:39:19;30.20;71.40
27803;DHT22;15182;48.174;11.562;2023-08-20T07:41:47;30.30;71.00
27803;DHT22;15182;48.174;11.562;2023-08-20T07:44:15;30.40;71.20
27803;DHT22;15182;48.174;11.562;2023-08-20T07:46:44;30.50;71.10
27803;DHT22;15182;48.174;11.562;2023-08-20T07:49:12;30.60;71.40
27803;DHT22;15182;48.174;11.562;2023-08-20T07:51:39;30.70;71.30
27803;DHT22;15182;48.174;11.562;2023-08-20T07:54:07;30.80;71.30
27803;DHT22;15182;48.174;11.562;2023-08-20T07:56:35;30.80;71.20
27803;DHT22;15182;48.174;11.562;2023-08-20T07:59:03;30.90;71.00
27803;DHT22;15182;48.174;11.562;2023-08-20T08:01:31;31.00;70.90
27803;DHT22;15182;48.174;11.562;2023-08-20T08:04:00;31.10;70.40
27803;DHT22;15182;48.174;11.562;2023-08-20T08:06:28;31.20;71.00
27803;DHT22;15182;48.174;11.562;2023-08-20T08:08:55;31.30;70.60
27803;DHT22;15182;48.174;11.562;2023-08-20T08:11:23;31.30;70.70
27803;DHT22;15182;48.174;11.562;2023-08-20T08:13:52;31.40;70.30
27803;DHT22;15182;48.174;11.562;2023-08-20T08:16:19;31.40;70.00
27803;DHT22;15182;48.174;11.562;2023-08-20T08:18:47;31.50;69.30
27803;DHT22;15182;48.174;11.562;2023-08-20T08:21:16;31.50;69.50
27803;DHT22;15182;48.174;11.562;2023-08-20T08:23:44;31.60;68.30
27803;DHT22;15182;48.174;11.562;2023-08-20T08:26:12;31.60;69.00
27803;DHT22;15182;48.174;11.562;2023-08-20T08:28:40;31.60;68.50
27803;DHT22;15182;48.174;11.562;2023-08-20T08:31:08;31.70;68.10
27803;DHT22;15182;48.174;11.562;2023-08-20T08:33:35;31.70;68.30
27803;DHT22;15182;48.174;11.562;2023-08-20T08:36:03;31.70;67.30
27803;DHT22;15182;48.174;11.562;2023-08-20T08:38:33;31.70;68.00
27803;DHT22;15182;48.174;11.562;2023-08-20T08:41:03;31.70;68.30
27803;DHT22;15182;48.174;11.562;2023-08-20T08:43:32;31.80;68.10
27803;DHT22;15182;48.174;11.562;2023-08-20T08:46:00;31.80;67.90
27803;DHT22;15182;48.174;11.562;2023-08-20T08:48:29;31.80;67.30
27803;DHT22;15182;48.174;11.562;2023-08-20T08:50:57;31.80;67.60
27803;DHT22;15182;48.174;11.562;2023-08-20T08:53:25;31.90;68.00
27803;DHT22;15182;48.174;11.562;2023-08-20T08:55:54;32.00;67.60
27803;DHT22;15182;48.174;11.562;2023-08-20T08:58:22;32.00;67.10
27803;DHT22;15182;48.174;11.562;2023-08-20T09:00:50;32.10;67.40
27803;DHT22;15182;48.174;11.562;2023-08-20T09:03:17;32.20;66.90
27803;DHT22;15182;48.174;11.562;2023-08-20T09:05:46;32.20;66.60
27803;DHT22;15182;48.174;11.562;2023-08-20T09:08:21;32.30;66.20
27803;DHT22;15182;48.174;11.562;2023-08-20T09:10:50;32.40;65.00
27803;DHT22;15182;48.174;11.562;2023-08-20T09:13:23;32.40;65.10
27803;DHT22;15182;48.174;11.562;2023-08-20T09:15:52;32.50;64.20
27803;DHT22;15182;48.174;11.562;2023-08-20T09:18:20;32.50;64.80
27803;DHT22;15182;48.174;11.562;2023-08-20T09:20:48;32.60;64.50
27803;DHT22;15182;48.174;11.562;2023-08-20T09:23:16;32.60;64.20
27803;DHT22;15182;48.174;11.562;2023-08-20T09:25:44;32.70;64.10
27803;DHT22;15182;48.174;11.562;2023-08-20T09:28:12;32.70;64.20
27803;DHT22;15182;48.174;11.562;2023-08-20T09:30:54;32.80;65.30
27803;DHT22;15182;48.174;11.562;2023-08-20T09:33:23;32.80;65.20
27803;DHT22;15182;48.174;11.562;2023-08-20T09:35:51;32.90;64.10
27803;DHT22;15182;48.174;11.562;2023-08-20T09:38:20;33.00;63.80
27803;DHT22;15182;48.174;11.562;2023-08-20T09:40:50;33.10;63.00
27803;DHT22;15182;48.174;11.562;2023-08-20T09:43:19;33.20;62.70
27803;DHT22;15182;48.174;11.562;2023-08-20T09:45:48;33.30;62.60
27803;DHT22;15182;48.174;11.562;2023-08-20T09:48:19;33.40;62.40
27803;DHT22;15182;48.174;11.562;2023-08-20T09:50:48;33.50;61.70
27803;DHT22;15182;48.174;11.562;2023-08-20T09:53:26;33.60;61.60
27803;DHT22;15182;48.174;11.562;2023-08-20T09:55:56;33.80;61.30
27803;DHT22;15182;48.174;11.562;2023-08-20T09:58:31;33.90;61.20
27803;DHT22;15182;48.174;11.562;2023-08-20T10:01:01;34.00;62.00
27803;DHT22;15182;48.174;11.562;2023-08-20T10:03:29;34.20;61.10
27803;DHT22;15182;48.174;11.562;2023-08-20T10:05:58;34.30;61.60
27803;DHT22;15182;48.174;11.562;2023-08-20T10:08:27;34.40;60.40
27803;DHT22;15182;48.174;11.562;2023-08-20T10:10:55;34.50;60.20
27803;DHT22;15182;48.174;11.562;2023-08-20T10:13:23;34.70;59.60
27803;DHT22;15182;48.174;11.562;2023-08-20T10:15:51;34.80;59.50
27803;DHT22;15182;48.174;11.562;2023-08-20T10:18:22;35.00;59.70
27803;DHT22;15182;48.174;11.562;2023-08-20T10:20:51;35.10;59.50
27803;DHT22;15182;48.174;11.562;2023-08-20T10:23:21;35.20;59.50
27803;DHT22;15182;48.174;11.562;2023-08-20T10:25:52;35.40;59.40
27803;DHT22;15182;48.174;11.562;2023-08-20T10:28:22;35.50;59.00
27803;DHT22;15182;48.174;11.562;2023-08-20T10:31:08;35.70;58.80
27803;DHT22;15182;48.174;11.562;2023-08-20T10:33:48;35.80;58.60
27803;DHT22;15182;48.174;11.562;2023-08-20T10:36:17;36.00;57.60
27803;DHT22;15182;48.174;11.562;2023-08-20T10:38:49;36.10;58.10
27803;DHT22;15182;48.174;11.562;2023-08-20T10:41:24;36.30;58.00
27803;DHT22;15182;48.174;11.562;2023-08-20T10:43:52;36.40;57.60
27803;DHT22;15182;48.174;11.562;2023-08-20T10:46:22;36.60;58.10
27803;DHT22;15182;48.174;11.562;2023-08-20T10:48:53;36.70;57.90
27803;DHT22;15182;48.174;11.562;2023-08-20T10:51:25;36.90;57.50
27803;DHT22;15182;48.174;11.562;2023-08-20T10:54:05;37.00;57.00
27803;DHT22;15182;48.174;11.562;2023-08-20T10:56:41;37.20;56.70
27803;DHT22;15182;48.174;11.562;2023-08-20T10:59:14;37.40;56.20
27803;DHT22;15182;48.174;11.562;2023-08-20T11:01:44;37.50;56.40
27803;DHT22;15182;48.174;11.562;2023-08-20T11:04:15;37.60;55.80
27803;DHT22;15182;48.174;11.562;2023-08-20T11:06:44;37.70;55.30
27803;DHT22;15182;48.174;11.562;2023-08-20T11:09:12;37.80;55.50
27803;DHT22;15182;48.174;11.562;2023-08-20T11:11:41;37.90;55.20
27803;DHT22;15182;48.174;11.562;2023-08-20T11:14:12;38.00;55.00
27803;DHT22;15182;48.174;11.562;2023-08-20T11:16:42;38.00;54.70
27803;DHT22;15182;48.174;11.562;2023-08-20T11:19:11;38.10;54.80
27803;DHT22;15182;48.174;11.562;2023-08-20T11:21:41;38.20;54.20
27803;DHT22;15182;48.174;11.562;2023-08-20T11:24:10;38.30;54.40
27803;DHT22;15182;48.174;11.562;2023-08-20T11:26:39;38.30;54.40
27803;DHT22;15182;48.174;11.562;2023-08-20T11:29:09;38.40;54.40
27803;DHT22;15182;48.174;11.562;2023-08-20T11:31:38;38.50;53.90
27803;DHT22;15182;48.174;11.562;2023-08-20T11:34:07;38.60;53.90
27803;DHT22;15182;48.174;11.562;2023-08-20T11:36:35;38.70;54.30
27803;DHT22;15182;48.174;11.562;2023-08-20T11:39:04;38.70;53.10
27803;DHT22;15182;48.174;11.562;2023-08-20T11:41:36;38.80;51.50
27803;DHT22;15182;48.174;11.562;2023-08-20T11:44:04;38.90;51.90
27803;DHT22;15182;48.174;11.562;2023-08-20T11:46:32;38.90;52.80
27803;DHT22;15182;48.174;11.562;2023-08-20T11:49:01;39.00;52.80
27803;DHT22;15182;48.174;11.562;2023-08-20T11:51:34;39.00;52.40
27803;DHT22;15182;48.174;11.562;2023-08-20T11:54:05;39.10;52.40
27803;DHT22;15182;48.174;11.562;2023-08-20T11:56:33;39.10;51.90
27803;DHT22;15182;48.174;11.562;2023-08-20T11:59:01;39.10;52.20
27803;DHT22;15182;48.174;11.562;2023-08-20T12:01:33;39.20;51.90
27803;DHT22;15182;48.174;11.562;2023-08-20T12:04:02;39.20;50.80
27803;DHT22;15182;48.174;11.562;2023-08-20T12:06:31;39.30;51.80
27803;DHT22;15182;48.174;11.562;2023-08-20T12:09:01;39.30;51.60
27803;DHT22;15182;48.174;11.562;2023-08-20T12:11:32;39.30;51.10
27803;DHT22;15182;48.174;11.562;2023-08-20T12:14:00;39.30;50.90
27803;DHT22;15182;48.174;11.562;2023-08-20T12:16:28;39.30;51.20
27803;DHT22;15182;48.174;11.562;2023-08-20T12:18:56;39.30;51.30
27803;DHT22;15182;48.174;11.562;2023-08-20T12:21:24;39.40;52.00
27803;DHT22;15182;48.174;11.562;2023-08-20T12:23:52;39.40;51.60
27803;DHT22;15182;48.174;11.562;2023-08-20T12:26:20;39.40;51.10
27803;DHT22;15182;48.174;11.562;2023-08-20T12:28:49;39.50;51.00
27803;DHT22;15182;48.174;11.562;2023-08-20T12:31:17;39.50;50.80
27803;DHT22;15182;48.174;11.562;2023-08-20T12:33:45;39.50;50.80
27803;DHT22;15182;48.174;11.562;2023-08-20T12:36:12;39.50;50.90
27803;DHT22;15182;48.174;11.562;2023-08-20T12:38:40;39.60;50.70
27803;DHT22;15182;48.174;11.562;2023-08-20T12:41:08;39.60;50.80
27803;DHT22;15182;48.174;11.562;2023-08-20T12:43:36;39.70;50.40
27803;DHT22;15182;48.174;11.562;2023-08-20T12:46:05;39.60;50.70
27803;DHT22;15182;48.174;11.562;2023-08-20T12:48:33;39.60;51.10
27803;DHT22;15182;48.174;11.562;2023-08-20T12:51:00;39.60;51.50
27803;DHT22;15182;48.174;11.562;2023-08-20T12:53:29;39.70;50.80
27803;DHT22;15182;48.174;11.562;2023-08-20T12:55:57;39.70;50.30
27803;DHT22;15182;48.174;11.562;2023-08-20T12:58:24;39.80;50.10
27803;DHT22;15182;48.174;11.562;2023-08-20T13:00:52;39.80;49.70
27803;DHT22;15182;48.174;11.562;2023-08-20T13:03:22;39.80;49.80
27803;DHT22;15182;48.174;11.562;2023-08-20T13:05:51;39.80;49.00
27803;DHT22;15182;48.174;11.562;2023-08-20T13:08:19;39.80;49.20
27803;DHT22;15182;48.174;11.562;2023-08-20T13:10:52;39.80;49.50
27803;DHT22;15182;48.174;11.562;2023-08-20T13:13:23;39.90;49.20
27803;DHT22;15182;48.174;11.562;2023-08-20T13:15:52;39.90;49.20
27803;DHT22;15182;48.174;11.562;2023-08-20T13:18:23;39.90;49.30
27803;DHT22;15182;48.174;11.562;2023-08-20T13:20:52;39.90;48.80
27803;DHT22;15182;48.174;11.562;2023-08-20T13:23:20;39.90;49.50
27803;DHT22;15182;48.174;11.562;2023-08-20T13:25:48;39.90;49.20
27803;DHT22;15182;48.174;11.562;2023-08-20T13:28:15;39.90;49.60
27803;DHT22;15182;48.174;11.562;2023-08-20T13:30:44;39.90;49.40
27803;DHT22;15182;48.174;11.562;2023-08-20T13:33:13;39.90;49.50
27803;DHT22;15182;48.174;11.562;2023-08-20T13:35:42;39.80;49.50
27803;DHT22;15182;48.174;11.562;2023-08-20T13:38:10;39.70;49.60
27803;DHT22;15182;48.174;11.562;2023-08-20T13:40:38;39.80;50.10
27803;DHT22;15182;48.174;11.562;2023-08-20T13:43:06;39.70;49.60
27803;DHT22;15182;48.174;11.562;2023-08-20T13:45:35;39.80;50.10
27803;DHT22;15182;48.174;11.562;2023-08-20T13:48:03;39.70;50.30
27803;DHT22;15182;48.174;11.562;2023-08-20T13:50:32;39.70;50.40
27803;DHT22;15182;48.174;11.562;2023-08-20T13:53:01;39.60;50.50
27803;DHT22;15182;48.174;11.562;2023-08-20T13:55:29;39.60;50.80
27803;DHT22;15182;48.174;11.562;2023-08-20T13:57:57;39.60;50.60
27803;DHT22;15182;48.174;11.562;2023-08-20T14:00:25;39.60;50.60
27803;DHT22;15182;48.174;11.562;2023-08-20T14:02:53;39.50;50.00
27803;DHT22;15182;48.174;11.562;2023-08-20T14:05:21;39.50;50.40
27803;DHT22;15182;48.174;11.562;2023-08-20T14:07:48;39.40;50.70
27803;DHT22;15182;48.174;11.562;2023-08-20T14:10:17;39.40;50.80
27803;DHT22;15182;48.174;11.562;2023-08-20T14:12:45;39.30;51.00
27803;DHT22;15182;48.174;11.562;2023-08-20T14:15:13;39.30;50.90
27803;DHT22;15182;48.174;11.562;2023-08-20T14:17:41;39.30;50.80
27803;DHT22;15182;48.174;11.562;2023-08-20T14:20:09;39.30;51.00
27803;DHT22;15182;48.174;11.562;2023-08-20T14:22:38;39.20;50.70
27803;DHT22;15182;48.174;11.562;2023-08-20T14:25:06;39.20;51.00
27803;DHT22;15182;48.174;11.562;2023-08-20T14:27:36;39.10;51.20
27803;DHT22;15182;48.174;11.562;2023-08-20T14:30:05;39.10;51.60
27803;DHT22;15182;48.174;11.562;2023-08-20T14:32:34;39.00;51.40
27803;DHT22;15182;48.174;11.562;2023-08-20T14:35:02;39.00;51.30
27803;DHT22;15182;48.174;11.562;2023-08-20T14:37:30;38.90;51.30
27803;DHT22;15182;48.174;11.562;2023-08-20T14:39:58;38.90;51.50
27803;DHT22;15182;48.174;11.562;2023-08-20T14:42:26;38.80;51.70
27803;DHT22;15182;48.174;11.562;2023-08-20T14:44:55;38.80;52.00
27803;DHT22;15182;48.174;11.562;2023-08-20T14:47:23;38.70;52.00
27803;DHT22;15182;48.174;11.562;2023-08-20T14:49:51;38.70;53.10
27803;DHT22;15182;48.174;11.562;2023-08-20T14:52:19;38.60;52.30
27803;DHT22;15182;48.174;11.562;2023-08-20T14:54:47;38.60;52.50
27803;DHT22;15182;48.174;11.562;2023-08-20T14:57:15;38.50;52.50
27803;DHT22;15182;48.174;11.562;2023-08-20T14:59:43;38.50;52.40
27803;DHT22;15182;48.174;11.562;2023-08-20T15:02:13;38.40;52.40
27803;DHT22;15182;48.174;11.562;2023-08-20T15:04:40;38.30;52.50
27803;DHT22;15182;48.174;11.562;2023-08-20T15:07:08;38.20;52.50
27803;DHT22;15182;48.174;11.562;2023-08-20T15:09:36;38.20;52.40
27803;DHT22;15182;48.174;11.562;2023-08-20T15:12:05;38.10;52.60
27803;DHT22;15182;48.174;11.562;2023-08-20T15:14:33;38.00;52.40
27803;DHT22;15182;48.174;11.562;2023-08-20T15:17:01;37.90;52.30
27803;DHT22;15182;48.174;11.562;2023-08-20T15:19:30;37.80;52.30
27803;DHT22;15182;48.174;11.562;2023-08-20T15:21:58;37.70;52.70
27803;DHT22;15182;48.174;11.562;2023-08-20T15:24:25;37.60;52.60
27803;DHT22;15182;48.174;11.562;2023-08-20T15:26:53;37.60;52.70